createdAt,value
2017-09-21T00:00:25.558Z,71.57
2017-09-21T00:02:53.010Z,64.93
2017-09-21T00:05:20.466Z,77.53
2017-09-21T00:07:47.956Z,65.20
2017-09-21T00:10:15.414Z,71.67
2017-09-21T00:12:42.867Z,82.83
2017-09-21T00:15:10.338Z,75.27
2017-09-21T00:17:37.790Z,69.23
2017-09-21T00:20:05.275Z,74.77
2017-09-21T00:22:32.732Z,70.43
2017-09-21T00:25:00.194Z,78.73
2017-09-21T00:27:27.682Z,71.47
2017-09-21T00:29:55.737Z,68.30
2017-09-21T00:32:23.281Z,68.07
2017-09-21T00:34:50.758Z,65.63
2017-09-21T00:37:18.214Z,66.40
2017-09-21T00:39:45.666Z,77.30
2017-09-21T00:42:13.145Z,70.03
2017-09-21T00:44:40.630Z,65.03
2017-09-21T00:47:08.090Z,71.67
2017-09-21T00:49:35.562Z,62.10
2017-09-21T00:52:03.031Z,67.93
2017-09-21T00:54:30.482Z,67.87
2017-09-21T00:56:57.963Z,65.97
2017-09-21T00:59:25.430Z,79.87
2017-09-21T01:01:52.907Z,79.37
2017-09-21T01:04:20.358Z,76.30
2017-09-21T01:06:47.810Z,71.87
2017-09-21T01:09:15.283Z,88.63
2017-09-21T01:11:42.738Z,89.40
2017-09-21T01:14:10.190Z,85.33
2017-09-21T01:16:37.665Z,76.23
2017-09-21T01:19:05.146Z,95.77
2017-09-21T01:21:32.608Z,99.93
2017-09-21T01:24:00.086Z,86.07
2017-09-21T01:26:27.542Z,79.77
2017-09-21T01:28:54.995Z,72.87
2017-09-21T01:31:22.479Z,77.07
2017-09-21T01:33:50.801Z,78.77
2017-09-21T01:36:18.280Z,77.13
2017-09-21T01:38:45.739Z,86.70
2017-09-21T01:41:13.197Z,88.80
2017-09-21T01:43:40.674Z,75.20
2017-09-21T01:46:08.127Z,83.13
2017-09-21T01:48:35.595Z,85.67
2017-09-21T01:51:03.070Z,79.93
2017-09-21T01:53:30.522Z,91.87
2017-09-21T01:55:57.979Z,76.53
2017-09-21T01:58:25.453Z,86.53
2017-09-21T02:00:52.914Z,80.87
2017-09-21T02:03:20.506Z,81.80
2017-09-21T02:05:48.044Z,74.70
2017-09-21T02:08:15.556Z,79.47
2017-09-21T02:10:43.051Z,81.83
2017-09-21T02:13:10.604Z,80.13
2017-09-21T02:15:38.099Z,83.63
2017-09-21T02:18:05.575Z,73.97
2017-09-21T02:20:33.032Z,89.93
2017-09-21T02:23:00.490Z,86.83
2017-09-21T02:25:27.972Z,76.90
2017-09-21T02:27:55.430Z,72.00
2017-09-21T02:30:22.882Z,84.07
2017-09-21T02:32:50.363Z,81.60
2017-09-21T02:35:17.818Z,82.03
2017-09-21T02:37:45.274Z,85.33
2017-09-21T02:40:12.758Z,87.03
2017-09-21T02:42:40.222Z,82.90
2017-09-21T02:45:07.674Z,81.80
2017-09-21T02:47:35.147Z,91.13
2017-09-21T02:50:02.607Z,87.37
2017-09-21T02:52:30.087Z,189.73
2017-09-21T02:54:57.552Z,106.77
2017-09-21T02:57:25.017Z,103.67
2017-09-21T02:59:52.506Z,188.57
2017-09-21T03:02:19.966Z,367.83
2017-09-21T03:04:47.427Z,224.63
2017-09-21T03:07:14.906Z,245.53
2017-09-21T03:09:42.371Z,220.07
2017-09-21T03:12:09.830Z,183.00
2017-09-21T03:14:37.314Z,418.43
2017-09-21T03:17:04.779Z,120.07
2017-09-21T03:19:32.237Z,219.80
2017-09-21T03:21:59.721Z,258.53
2017-09-21T03:24:27.183Z,171.47
2017-09-21T03:26:54.642Z,126.07
2017-09-21T03:29:22.138Z,117.80
2017-09-21T03:31:49.586Z,90.27
2017-09-21T03:34:17.038Z,194.40
2017-09-21T03:36:44.513Z,86.40
2017-09-21T03:39:11.979Z,80.90
2017-09-21T03:41:39.470Z,93.60
2017-09-21T03:44:06.934Z,79.03
2017-09-21T03:46:34.398Z,88.53
2017-09-21T03:49:01.882Z,92.95
2017-09-21T03:51:29.335Z,90.17
2017-09-21T03:53:56.831Z,90.53
2017-09-21T03:56:24.281Z,80.20
2017-09-21T03:58:51.750Z,85.90
2017-09-21T04:01:19.225Z,94.97
2017-09-21T04:03:46.690Z,104.67
2017-09-21T04:06:14.174Z,81.72
2017-09-21T04:08:41.671Z,79.62
2017-09-21T04:11:09.134Z,70.95
2017-09-21T04:13:36.563Z,80.70
2017-09-21T04:16:04.078Z,80.25
2017-09-21T04:18:31.543Z,87.53
2017-09-21T04:20:59.230Z,80.43
2017-09-21T04:23:26.716Z,86.15
2017-09-21T04:25:54.182Z,74.62
2017-09-21T04:28:21.667Z,77.28
2017-09-21T04:30:49.154Z,83.95
2017-09-21T04:33:16.635Z,81.95
2017-09-21T04:35:44.082Z,66.73
2017-09-21T04:38:11.578Z,70.50
2017-09-21T04:40:39.043Z,80.22
2017-09-21T04:43:06.542Z,65.82
2017-09-21T04:45:34.002Z,64.77
2017-09-21T04:48:01.467Z,75.20
2017-09-21T04:50:28.954Z,79.00
2017-09-21T04:52:56.418Z,61.58
2017-09-21T04:55:23.886Z,66.43
2017-09-21T04:57:51.371Z,67.45
2017-09-21T05:00:18.859Z,71.15
2017-09-21T05:02:46.346Z,59.88
2017-09-21T05:05:13.813Z,59.95
2017-09-21T05:07:41.274Z,62.83
2017-09-21T05:10:08.767Z,65.78
2017-09-21T05:12:36.250Z,61.72
2017-09-21T05:15:03.739Z,76.47
2017-09-21T05:17:31.203Z,68.60
2017-09-21T05:19:58.667Z,58.90
2017-09-21T05:22:26.155Z,64.22
2017-09-21T05:24:53.614Z,72.00
2017-09-21T05:27:21.106Z,64.95
2017-09-21T05:29:48.571Z,62.88
2017-09-21T05:32:16.022Z,72.37
2017-09-21T05:34:43.510Z,70.45
2017-09-21T05:37:10.974Z,62.10
2017-09-21T05:39:38.438Z,75.20
2017-09-21T05:42:05.919Z,62.67
2017-09-21T05:44:33.371Z,65.37
2017-09-21T05:47:00.833Z,67.32
2017-09-21T05:49:28.318Z,70.05
2017-09-21T05:51:55.774Z,63.77
2017-09-21T05:54:23.236Z,66.57
2017-09-21T05:56:50.802Z,68.90
2017-09-21T05:59:18.270Z,63.28
2017-09-21T06:01:45.757Z,67.75
2017-09-21T06:04:13.217Z,75.18
2017-09-21T06:06:40.678Z,82.37
2017-09-21T06:09:08.163Z,73.30
2017-09-21T06:11:35.631Z,74.00
2017-09-21T06:14:03.119Z,77.35
2017-09-21T06:16:30.601Z,99.90
2017-09-21T06:18:58.077Z,79.90
2017-09-21T06:21:25.572Z,75.97
2017-09-21T06:23:53.038Z,75.70
2017-09-21T06:26:20.494Z,83.30
2017-09-21T06:28:47.979Z,71.62
2017-09-21T06:31:15.478Z,72.95
2017-09-21T06:33:42.935Z,75.30
2017-09-21T06:36:10.419Z,75.87
2017-09-21T06:38:37.875Z,63.55
2017-09-21T06:41:05.338Z,73.22
2017-09-21T06:43:32.877Z,70.28
2017-09-21T06:46:00.347Z,89.32
2017-09-21T06:48:27.822Z,80.73
2017-09-21T06:50:55.302Z,73.37
2017-09-21T06:53:22.754Z,82.60
2017-09-21T06:55:50.209Z,74.03
2017-09-21T06:58:17.705Z,77.57
2017-09-21T07:00:45.155Z,79.10
2017-09-21T07:03:12.610Z,69.27
2017-09-21T07:05:40.082Z,68.33
2017-09-21T07:08:07.546Z,78.40
2017-09-21T07:10:35.023Z,74.50
2017-09-21T07:13:02.491Z,61.33
2017-09-21T07:15:29.954Z,70.55
2017-09-21T07:17:57.430Z,78.53
2017-09-21T07:20:24.883Z,73.70
2017-09-21T07:22:52.339Z,62.23
2017-09-21T07:25:19.818Z,64.03
2017-09-21T07:27:47.266Z,57.97
2017-09-21T07:30:14.744Z,57.80
2017-09-21T07:32:42.241Z,52.13
2017-09-21T07:35:09.710Z,59.78
2017-09-21T07:37:37.199Z,61.22
2017-09-21T07:40:04.881Z,66.37
2017-09-21T07:42:32.338Z,56.00
2017-09-21T07:44:59.805Z,57.40
2017-09-21T07:47:27.268Z,53.50
2017-09-21T07:49:54.745Z,77.90
2017-09-21T07:52:22.202Z,64.50
2017-09-21T07:54:49.657Z,75.20
2017-09-21T07:57:17.136Z,56.53
2017-09-21T07:59:44.601Z,53.60
2017-09-21T08:02:12.086Z,57.27
2017-09-21T08:04:39.542Z,55.17
2017-09-21T08:07:06.998Z,63.90
2017-09-21T08:09:34.475Z,60.77
2017-09-21T08:12:01.937Z,52.30
2017-09-21T08:14:29.394Z,56.07
2017-09-21T08:16:56.841Z,55.07
2017-09-21T08:19:24.338Z,63.27
2017-09-21T08:21:51.797Z,62.43
2017-09-21T08:24:19.278Z,58.03
2017-09-21T08:26:46.729Z,53.93
2017-09-21T08:29:14.182Z,51.83
2017-09-21T08:31:41.666Z,57.10
2017-09-21T08:34:09.123Z,65.00
2017-09-21T08:36:36.587Z,54.70
2017-09-21T08:39:04.066Z,53.77
2017-09-21T08:41:31.531Z,55.30
2017-09-21T08:43:58.990Z,56.97
2017-09-21T08:46:26.467Z,65.13
2017-09-21T08:48:53.927Z,56.77
2017-09-21T08:51:21.406Z,75.90
2017-09-21T08:53:48.882Z,54.43
2017-09-21T08:56:16.338Z,65.10
2017-09-21T08:58:43.827Z,56.50
2017-09-21T09:01:11.290Z,56.13
2017-09-21T09:03:38.754Z,51.93
2017-09-21T09:06:06.234Z,57.23
2017-09-21T09:08:33.686Z,54.80
2017-09-21T09:11:01.146Z,51.37
2017-09-21T09:13:28.622Z,60.43
2017-09-21T09:15:56.079Z,57.27
2017-09-21T09:18:23.546Z,57.60
2017-09-21T09:20:51.031Z,54.23
2017-09-21T09:23:19.102Z,52.70
2017-09-21T09:25:46.926Z,49.97
2017-09-21T09:28:14.870Z,60.30
2017-09-21T09:30:42.501Z,53.10
2017-09-21T09:33:09.983Z,52.13
2017-09-21T09:35:37.455Z,51.70
2017-09-21T09:38:04.938Z,50.20
2017-09-21T09:40:32.404Z,48.90
2017-09-21T09:42:59.871Z,50.90
2017-09-21T09:45:27.359Z,49.60
2017-09-21T09:47:54.814Z,47.90
2017-09-21T09:50:22.274Z,48.20
2017-09-21T09:52:49.760Z,45.60
2017-09-21T09:55:17.241Z,42.43
2017-09-21T09:57:44.698Z,56.87
2017-09-21T10:00:12.190Z,41.13
2017-09-21T10:02:39.662Z,43.50
2017-09-21T10:05:07.122Z,39.07
2017-09-21T10:07:34.599Z,37.63
2017-09-21T10:10:02.062Z,35.80
2017-09-21T10:12:29.566Z,34.37
2017-09-21T10:14:57.021Z,48.23
2017-09-21T10:17:24.479Z,35.07
2017-09-21T10:19:51.958Z,33.57
2017-09-21T10:22:19.433Z,48.53
2017-09-21T10:24:46.895Z,37.43
2017-09-21T10:27:14.386Z,38.17
2017-09-21T10:29:41.843Z,33.60
2017-09-21T10:32:09.299Z,31.17
2017-09-21T10:34:36.774Z,30.40
2017-09-21T10:37:04.234Z,28.17
2017-09-21T10:39:31.710Z,27.33
2017-09-21T10:41:59.162Z,27.87
2017-09-21T10:44:26.626Z,20.07
2017-09-21T10:46:54.144Z,25.17
2017-09-21T10:49:21.598Z,21.53
2017-09-21T10:51:49.062Z,24.30
2017-09-21T10:54:16.546Z,19.87
2017-09-21T10:56:44.011Z,24.10
2017-09-21T10:59:11.471Z,19.10
2017-09-21T11:01:38.948Z,26.57
2017-09-21T11:04:06.414Z,19.87
2017-09-21T11:06:33.889Z,16.30
2017-09-21T11:09:01.346Z,14.47
2017-09-21T11:11:28.802Z,10.80
2017-09-21T11:13:56.285Z,13.33
2017-09-21T11:16:23.746Z,18.87
2017-09-21T11:18:51.306Z,21.10
2017-09-21T11:21:18.782Z,16.23
2017-09-21T11:23:46.240Z,18.37
2017-09-21T11:26:13.718Z,17.50
2017-09-21T11:28:41.174Z,19.23
2017-09-21T11:31:08.632Z,15.43
2017-09-21T11:33:36.114Z,17.57
2017-09-21T11:36:03.585Z,19.53
2017-09-21T11:38:31.046Z,14.80
2017-09-21T11:40:58.519Z,13.70
2017-09-21T11:43:25.988Z,19.00
2017-09-21T11:45:53.475Z,18.70
2017-09-21T11:48:20.938Z,13.60
2017-09-21T11:50:48.399Z,14.77
2017-09-21T11:53:15.875Z,14.37
2017-09-21T11:55:43.334Z,16.60
2017-09-21T11:58:10.854Z,17.70
2017-09-21T12:00:38.315Z,15.27
2017-09-21T12:03:05.790Z,19.47
2017-09-21T12:05:33.269Z,18.10
2017-09-21T12:08:00.730Z,20.63
2017-09-21T12:10:28.191Z,20.20
2017-09-21T12:12:55.666Z,21.60
2017-09-21T12:15:23.123Z,27.23
2017-09-21T12:17:50.602Z,17.93
2017-09-21T12:20:18.059Z,18.20
2017-09-21T12:22:45.515Z,18.10
2017-09-21T12:25:12.998Z,18.10
2017-09-21T12:27:40.454Z,18.87
2017-09-21T12:30:07.934Z,17.30
2017-09-21T12:32:35.399Z,17.43
2017-09-21T12:35:02.858Z,17.80
2017-09-21T12:37:30.339Z,18.23
2017-09-21T12:39:57.795Z,10.40
2017-09-21T12:42:25.251Z,11.70
2017-09-21T12:44:52.748Z,12.37
2017-09-21T12:47:20.213Z,15.57
2017-09-21T12:49:47.671Z,11.30
2017-09-21T12:52:15.142Z,9.57
2017-09-21T12:54:42.598Z,11.63
2017-09-21T12:57:10.058Z,9.80
2017-09-21T12:59:37.527Z,14.87
2017-09-21T13:02:04.986Z,12.07
2017-09-21T13:04:32.469Z,11.13
2017-09-21T13:06:59.926Z,10.93
2017-09-21T13:09:27.379Z,13.50
2017-09-21T13:11:54.859Z,12.23
2017-09-21T13:14:22.311Z,15.00
2017-09-21T13:16:49.772Z,17.40
2017-09-21T13:19:17.254Z,10.70
2017-09-21T13:21:44.708Z,13.00
2017-09-21T13:24:12.191Z,10.07
2017-09-21T13:26:39.646Z,11.20
2017-09-21T13:29:07.135Z,12.03
2017-09-21T13:31:34.683Z,11.80
2017-09-21T13:34:02.147Z,13.67
2017-09-21T13:36:29.607Z,13.00
2017-09-21T13:38:57.083Z,10.13
2017-09-21T13:41:24.547Z,15.30
2017-09-21T13:43:52.007Z,11.63
2017-09-21T13:46:19.477Z,11.23
2017-09-21T13:48:46.997Z,12.43
2017-09-21T13:51:14.475Z,15.23
2017-09-21T13:53:41.943Z,11.10
2017-09-21T13:56:09.474Z,10.23
2017-09-21T13:58:36.978Z,14.43
2017-09-21T14:01:04.443Z,10.97
2017-09-21T14:03:31.898Z,12.40
2017-09-21T14:05:59.373Z,9.27
2017-09-21T14:08:26.817Z,9.43
2017-09-21T14:10:54.306Z,14.87
2017-09-21T14:13:21.774Z,10.07
2017-09-21T14:15:49.233Z,13.70
2017-09-21T14:18:16.712Z,10.73
2017-09-21T14:20:44.165Z,11.57
2017-09-21T14:23:11.618Z,16.53
2017-09-21T14:25:39.096Z,11.30
2017-09-21T14:28:06.547Z,12.33
2017-09-21T14:30:34.010Z,10.83
2017-09-21T14:33:01.482Z,10.70
2017-09-21T14:35:28.946Z,9.90
2017-09-21T14:37:56.533Z,14.70
2017-09-21T14:40:23.991Z,9.93
2017-09-21T14:42:51.464Z,25.43
2017-09-21T14:45:18.950Z,22.73
2017-09-21T14:47:46.417Z,20.77
2017-09-21T14:50:13.893Z,10.90
2017-09-21T14:52:41.343Z,10.90
2017-09-21T14:55:08.797Z,9.37
2017-09-21T14:57:36.266Z,8.37
2017-09-21T15:00:03.718Z,11.67
2017-09-21T15:02:31.199Z,14.07
2017-09-21T15:04:58.654Z,14.63
2017-09-21T15:07:26.110Z,11.40
2017-09-21T15:09:53.588Z,13.00
2017-09-21T15:12:21.042Z,10.60
2017-09-21T15:14:48.524Z,11.30
2017-09-21T15:17:15.983Z,12.57
2017-09-21T15:19:43.444Z,12.70
2017-09-21T15:22:10.932Z,17.63
2017-09-21T15:24:38.388Z,12.97
2017-09-21T15:27:05.899Z,13.43
2017-09-21T15:29:33.379Z,10.60
2017-09-21T15:32:00.850Z,13.53
2017-09-21T15:34:28.302Z,12.73
2017-09-21T15:36:55.766Z,8.80
2017-09-21T15:39:23.251Z,19.07
2017-09-21T15:41:50.726Z,11.30
2017-09-21T15:44:18.181Z,18.13
2017-09-21T15:46:45.634Z,13.37
2017-09-21T15:49:13.111Z,12.63
2017-09-21T15:51:40.575Z,22.83
2017-09-21T15:54:08.030Z,13.47
2017-09-21T15:56:35.503Z,10.10
2017-09-21T15:59:02.972Z,12.40
2017-09-21T16:01:30.468Z,10.97
2017-09-21T16:03:57.934Z,10.80
2017-09-21T16:06:25.383Z,8.67
2017-09-21T16:08:52.858Z,9.40
2017-09-21T16:11:20.311Z,7.60
2017-09-21T16:13:47.766Z,11.03
2017-09-21T16:16:15.234Z,12.63
2017-09-21T16:18:42.694Z,11.47
2017-09-21T16:21:10.174Z,12.10
2017-09-21T16:23:37.627Z,9.07
2017-09-21T16:26:05.079Z,11.30
2017-09-21T16:28:32.726Z,7.60
2017-09-21T16:31:00.183Z,10.53
2017-09-21T16:33:27.638Z,9.77
2017-09-21T16:35:55.106Z,8.83
2017-09-21T16:38:22.571Z,8.90
2017-09-21T16:40:50.046Z,7.97
2017-09-21T16:43:17.949Z,7.87
2017-09-21T16:45:45.414Z,9.00
2017-09-21T16:48:12.882Z,7.43
2017-09-21T16:50:40.358Z,8.70
2017-09-21T16:53:07.819Z,10.63
2017-09-21T16:55:35.295Z,10.27
2017-09-21T16:58:02.746Z,9.40
2017-09-21T17:00:30.199Z,18.20
2017-09-21T17:02:57.679Z,12.93
2017-09-21T17:05:25.146Z,8.77
2017-09-21T17:07:52.668Z,9.00
2017-09-21T17:10:20.151Z,14.13
2017-09-21T17:12:47.622Z,11.30
2017-09-21T17:15:15.091Z,14.07
2017-09-21T17:17:42.566Z,10.33
2017-09-21T17:20:10.042Z,12.00
2017-09-21T17:22:37.545Z,11.60
2017-09-21T17:25:05.038Z,31.37
2017-09-21T17:27:32.518Z,16.50
2017-09-21T17:29:59.993Z,25.60
2017-09-21T17:32:27.467Z,21.60
2017-09-21T17:34:54.939Z,10.10
2017-09-21T17:37:22.418Z,12.70
2017-09-21T17:39:49.893Z,39.70
2017-09-21T17:42:17.370Z,37.13
2017-09-21T17:44:44.822Z,35.13
2017-09-21T17:47:12.274Z,19.47
2017-09-21T17:49:39.754Z,17.23
2017-09-21T17:52:07.210Z,18.30
2017-09-21T17:54:34.694Z,14.27
2017-09-21T17:57:02.154Z,15.03
2017-09-21T17:59:29.615Z,14.40
2017-09-21T18:01:57.090Z,16.33
2017-09-21T18:04:24.546Z,23.13
2017-09-21T18:06:52.026Z,17.80
2017-09-21T18:09:19.482Z,28.13
2017-09-21T18:11:46.939Z,41.50
2017-09-21T18:14:14.419Z,21.20
2017-09-21T18:16:41.912Z,27.60
2017-09-21T18:19:09.363Z,22.37
2017-09-21T18:21:36.845Z,19.47
2017-09-21T18:24:04.361Z,18.70
2017-09-21T18:26:31.862Z,25.10
2017-09-21T18:28:59.322Z,21.00
2017-09-21T18:31:26.800Z,20.33
2017-09-21T18:33:54.290Z,19.33
2017-09-21T18:36:21.800Z,18.03
2017-09-21T18:38:49.259Z,20.30
2017-09-21T18:41:16.794Z,23.60
2017-09-21T18:43:44.504Z,24.90
2017-09-21T18:46:11.998Z,28.33
2017-09-21T18:48:39.567Z,30.70
2017-09-21T18:51:07.725Z,23.30
2017-09-21T18:53:35.807Z,21.33
2017-09-21T18:56:03.732Z,22.13
2017-09-21T18:58:31.573Z,14.97
2017-09-21T19:00:59.669Z,28.07
2017-09-21T19:03:27.896Z,27.00
2017-09-21T19:05:56.465Z,15.80
2017-09-21T19:08:24.723Z,21.87
2017-09-21T19:11:07.858Z,25.10
2017-09-21T19:13:38.829Z,16.50
2017-09-21T19:16:12.610Z,17.60
2017-09-21T19:18:50.678Z,16.70
2017-09-21T19:21:19.023Z,14.80
2017-09-21T19:23:47.418Z,19.97
2017-09-21T19:26:17.952Z,24.20
2017-09-21T19:28:53.948Z,20.97
2017-09-21T19:34:10.292Z,26.30
2017-09-21T19:36:38.947Z,29.63
2017-09-21T19:39:07.671Z,19.80
2017-09-21T19:41:37.169Z,23.20
2017-09-21T19:44:05.551Z,23.63
2017-09-21T19:46:34.082Z,24.47
2017-09-21T19:49:02.581Z,27.10
2017-09-21T19:51:30.987Z,19.80
2017-09-21T19:53:59.294Z,23.23
2017-09-21T19:56:28.058Z,21.77
2017-09-21T19:58:56.154Z,19.20
2017-09-21T20:01:24.126Z,23.43
2017-09-21T20:03:52.044Z,28.47
2017-09-21T20:06:19.827Z,25.57
2017-09-21T20:08:47.936Z,31.13
2017-09-21T20:11:15.964Z,36.27
2017-09-21T20:13:43.829Z,28.97
2017-09-21T20:16:11.571Z,47.07
2017-09-21T20:18:39.219Z,53.40
2017-09-21T20:21:06.905Z,57.27
2017-09-21T20:23:34.619Z,52.10
2017-09-21T20:26:02.195Z,34.73
2017-09-21T20:28:29.734Z,44.80
2017-09-21T20:30:57.213Z,38.53
2017-09-21T20:33:24.712Z,39.73
2017-09-21T20:35:52.179Z,37.47
2017-09-21T20:38:19.644Z,36.13
2017-09-21T20:40:47.138Z,41.13
2017-09-21T20:43:14.595Z,38.70
2017-09-21T20:45:42.129Z,26.70
2017-09-21T20:48:09.616Z,33.73
2017-09-21T20:50:37.074Z,34.33
2017-09-21T20:53:04.585Z,36.63
2017-09-21T20:55:32.094Z,32.50
2017-09-21T20:57:59.547Z,29.87
2017-09-21T21:00:27.138Z,41.93
2017-09-21T21:02:54.607Z,29.70
2017-09-21T21:05:22.073Z,33.93
2017-09-21T21:07:49.558Z,30.17
2017-09-21T21:10:17.018Z,32.50
2017-09-21T21:12:44.478Z,26.80
2017-09-21T21:15:11.955Z,29.50
2017-09-21T21:17:39.418Z,34.90
2017-09-21T21:20:06.902Z,29.90
2017-09-21T21:22:34.366Z,33.33
2017-09-21T21:25:01.823Z,45.60
2017-09-21T21:27:29.307Z,48.50
2017-09-21T21:29:56.765Z,81.37
2017-09-21T21:32:24.222Z,77.93
2017-09-21T21:34:51.706Z,83.90
2017-09-21T21:37:19.163Z,89.73
2017-09-21T21:39:46.631Z,104.90
2017-09-21T21:42:14.111Z,93.17
2017-09-21T21:44:41.566Z,92.13
2017-09-21T21:47:09.046Z,57.37
2017-09-21T21:49:36.548Z,43.37
2017-09-21T21:52:04.011Z,41.50
2017-09-21T21:54:31.452Z,49.87
2017-09-21T21:56:58.938Z,56.83
2017-09-21T21:59:26.418Z,53.80
2017-09-21T22:01:53.890Z,58.43
2017-09-21T22:04:21.359Z,60.07
2017-09-21T22:06:48.863Z,65.60
2017-09-21T22:09:16.343Z,52.77
2017-09-21T22:11:43.814Z,58.83
2017-09-21T22:14:11.270Z,41.93
2017-09-21T22:16:38.747Z,53.97
2017-09-21T22:19:06.223Z,51.93
2017-09-21T22:21:33.681Z,37.70
2017-09-21T22:24:01.139Z,38.10
2017-09-21T22:26:28.618Z,44.90
2017-09-21T22:28:56.075Z,56.30
2017-09-21T22:31:23.537Z,46.70
2017-09-21T22:33:51.014Z,42.10
2017-09-21T22:36:18.484Z,42.40
2017-09-21T22:38:45.962Z,40.00
2017-09-21T22:41:13.442Z,32.33
2017-09-21T22:43:40.902Z,37.83
2017-09-21T22:46:08.363Z,41.00
2017-09-21T22:48:35.842Z,33.37
2017-09-21T22:51:03.302Z,34.77
2017-09-21T22:53:30.762Z,38.73
2017-09-21T22:55:58.240Z,49.33
2017-09-21T22:58:25.703Z,36.80
2017-09-21T23:00:53.190Z,39.57
2017-09-21T23:03:20.613Z,38.03
2017-09-21T23:05:48.104Z,40.70
2017-09-21T23:08:15.591Z,43.10
2017-09-21T23:10:43.046Z,41.73
2017-09-21T23:13:10.506Z,40.30
2017-09-21T23:15:38.009Z,41.53
2017-09-21T23:18:05.483Z,43.50
2017-09-21T23:20:32.939Z,39.00
2017-09-21T23:23:00.467Z,38.90
2017-09-21T23:25:27.930Z,43.37
2017-09-21T23:27:55.390Z,46.27
2017-09-21T23:30:22.874Z,41.67
2017-09-21T23:32:50.333Z,38.13
2017-09-21T23:35:17.787Z,33.40
2017-09-21T23:37:45.270Z,39.77
2017-09-21T23:40:12.730Z,34.27
2017-09-21T23:42:40.186Z,47.77
2017-09-21T23:45:07.662Z,45.50
2017-09-21T23:47:35.118Z,33.97
2017-09-21T23:50:02.585Z,37.60
2017-09-21T23:52:30.070Z,50.27
2017-09-21T23:54:57.526Z,40.07
2017-09-21T23:57:24.984Z,38.97
2017-09-21T23:59:52.466Z,40.40
